Accueil
METAR-TAF:

METAR-TAF

Aéroports :

Wemindji, Québec, Canada

latitude: 53-00-39N, longitude: 078-49-49W, altitude: 15 m

Observation

Le bulletin a été fait il y a 1 heure et 35 minutes, à 20:00 UTC
Vent 6 kt de est
Température -1°C
Humidité 93%
Pression 995 hPa
Visibilité: 4.8 km
Nuages épars à une hauteur de 1100 ft
Ciel couvert à une hauteur de 2400 ft
neige faible

METAR: CYNC 192000Z 09006KT 3SM -SN SCT011 OVC024 M01/M02 A2937 RMK SF4SC4 LAST STFD OBS/NEXT 211600Z SLP948

Heure: 17:35 (21:35 UTC)


TAF: absent

Observations et prévisions météorologiques de plus de 4000 aéroports (messages METAR et TAF).

Les stations disponibles sont représentées par des disques jaunes et rouges sur la carte.

Passer la souris dessus pour voir le nom de la station.

Cliquer dessus pour voir les observations et prévisions météorologiques.

Pour changer de carte: cliquez sur les boutons verts avec une croix noire pour zoomer, sur le bouton vert avec un tiret pour effectuer un zoom arrière, ou sur les flèches vertes pour les cartes adjacentes.


METAR-TAF: